Time;durP1;ratioP1;P1;durP2;ratioP2;P2;SDS_P1;SDS_P2;PMS_P1;PMS_P2;Temp;Humidity;BMP_temperature;BMP_pressure;BME280_temperature;BME280_humidity;BME280_pressure;Samples;Min_cycle;Max_cycle;Signal;HPM_P1;HPM_P2
2023/08/21 00:01:14;;;;;;;7.93;5.30;;;23.90;99.10;;;;;;6270742;22;20020;-72
2023/08/21 00:04:00;;;;;;;7.72;5.32;;;23.90;99.20;;;;;;6269272;22;20338;-72
2023/08/21 00:06:46;;;;;;;8.20;5.53;;;23.90;99.20;;;;;;6273289;22;20015;-72
2023/08/21 00:09:32;;;;;;;8.25;5.15;;;23.90;99.30;;;;;;6273314;22;20521;-72
2023/08/21 00:12:18;;;;;;;10.93;4.93;;;23.80;99.40;;;;;;6273736;22;20012;-72
2023/08/21 00:15:05;;;;;;;7.32;5.47;;;23.80;99.40;;;;;;6271804;22;20026;-72
2023/08/21 00:17:51;;;;;;;8.25;5.18;;;23.80;99.50;;;;;;6273117;22;20452;-72
2023/08/21 00:20:37;;;;;;;6.20;5.18;;;23.70;99.70;;;;;;6273609;22;20020;-72
2023/08/21 00:23:22;;;;;;;9.27;5.15;;;23.70;99.80;;;;;;6273608;22;20015;-72
2023/08/21 00:26:08;;;;;;;7.82;5.47;;;23.60;99.90;;;;;;6271997;22;20012;-72
2023/08/21 00:28:54;;;;;;;7.95;5.53;;;23.70;99.90;;;;;;6246552;22;20095;-73
2023/08/21 00:31:40;;;;;;;8.30;5.38;;;23.60;99.90;;;;;;6273263;22;20018;-72
2023/08/21 00:34:26;;;;;;;9.60;5.90;;;23.60;99.90;;;;;;6271462;22;20015;-72
2023/08/21 00:37:12;;;;;;;9.40;6.03;;;23.60;99.90;;;;;;6273330;22;20015;-71
2023/08/21 00:39:58;;;;;;;7.40;4.95;;;23.50;99.90;;;;;;6272678;22;20076;-72
2023/08/21 00:42:44;;;;;;;9.73;5.75;;;23.50;99.90;;;;;;6272872;22;20004;-72
2023/08/21 00:45:30;;;;;;;9.38;5.45;;;23.50;99.90;;;;;;6272975;22;20008;-72
2023/08/21 00:48:16;;;;;;;7.22;5.72;;;23.40;99.90;;;;;;6271048;22;20075;-71
2023/08/21 00:51:03;;;;;;;7.90;6.00;;;23.40;99.90;;;;;;6272451;22;20039;-71
2023/08/21 00:53:49;;;;;;;8.35;5.88;;;23.40;99.90;;;;;;6272187;22;20011;-72
2023/08/21 00:56:36;;;;;;;12.23;5.30;;;23.40;99.90;;;;;;6273828;22;20232;-70
2023/08/21 00:59:22;;;;;;;8.93;6.30;;;23.40;99.90;;;;;;6271832;22;20469;-70
2023/08/21 01:02:08;;;;;;;10.05;6.35;;;23.40;99.90;;;;;;6273330;22;20008;-70
2023/08/21 01:04:54;;;;;;;10.85;6.60;;;23.40;99.90;;;;;;6271807;22;20015;-70
2023/08/21 01:08:04;;;;;;;11.00;6.63;;;23.30;99.90;;;;;;6273668;22;20035;-71
2023/08/21 01:10:54;;;;;;;7.75;5.68;;;23.40;99.90;;;;;;6273372;22;20004;-70
2023/08/21 01:14:15;;;;;;;8.18;5.35;;;23.40;99.90;;;;;;6268019;22;20391;-71
2023/08/21 01:17:04;;;;;;;8.10;5.35;;;23.30;99.90;;;;;;6149643;23;20009;-71
2023/08/21 01:19:52;;;;;;;7.43;5.03;;;23.40;99.90;;;;;;6270909;22;20101;-71
2023/08/21 01:22:40;;;;;;;7.95;5.85;;;23.40;99.90;;;;;;6273104;22;20366;-71
2023/08/21 01:25:26;;;;;;;7.60;5.22;;;23.40;99.90;;;;;;6272005;22;20015;-71
2023/08/21 01:28:12;;;;;;;8.38;5.47;;;23.40;99.90;;;;;;6272556;22;20020;-71
2023/08/21 01:31:07;;;;;;;10.18;6.22;;;23.40;99.90;;;;;;6273192;22;20337;-70
2023/08/21 01:33:58;;;;;;;;;;;23.30;99.90;;;;;;6249439;22;20039;-70
2023/08/21 01:36:45;;;;;;;7.57;5.20;;;23.30;99.90;;;;;;6270886;22;19931;-69
2023/08/21 01:39:32;;;;;;;8.18;5.80;;;23.30;99.90;;;;;;6270479;22;20004;-69
2023/08/21 01:42:17;;;;;;;7.55;5.07;;;23.40;99.90;;;;;;6271840;22;20045;-70
2023/08/21 01:45:04;;;;;;;9.60;6.07;;;23.40;99.90;;;;;;6271589;22;20244;-69
2023/08/21 01:47:50;;;;;;;8.57;5.78;;;23.40;99.90;;;;;;6272845;22;20015;-69
2023/08/21 01:50:36;;;;;;;8.57;5.47;;;23.40;99.90;;;;;;6249890;22;20008;-69
2023/08/21 01:53:22;;;;;;;8.93;6.28;;;23.40;99.90;;;;;;6271411;22;20483;-69
2023/08/21 01:56:08;;;;;;;8.85;6.38;;;23.40;99.90;;;;;;6271951;22;20011;-70
2023/08/21 01:58:54;;;;;;;10.38;6.03;;;23.40;99.90;;;;;;6271600;22;20018;-69
2023/08/21 02:01:39;;;;;;;8.00;5.72;;;23.40;99.90;;;;;;6271999;22;20007;-71
2023/08/21 02:04:25;;;;;;;9.70;6.03;;;23.40;99.90;;;;;;6272117;22;20039;-72
2023/08/21 02:07:11;;;;;;;8.73;5.60;;;23.40;99.90;;;;;;6271913;22;20897;-70
2023/08/21 02:09:57;;;;;;;7.70;5.68;;;23.40;99.90;;;;;;6271423;22;20409;-68
2023/08/21 02:12:43;;;;;;;7.30;5.18;;;23.40;99.90;;;;;;6272609;22;20348;-69
2023/08/21 02:15:29;;;;;;;8.38;5.85;;;23.40;99.90;;;;;;6271861;22;20011;-71
2023/08/21 02:18:15;;;;;;;8.88;6.35;;;23.40;99.90;;;;;;6271700;22;20030;-71
2023/08/21 02:21:01;;;;;;;7.40;5.85;;;23.40;99.90;;;;;;6272290;22;20012;-71
2023/08/21 02:23:47;;;;;;;9.98;5.63;;;23.40;99.90;;;;;;6270636;22;20008;-72
2023/08/21 02:26:33;;;;;;;8.88;6.13;;;23.40;99.90;;;;;;6271292;22;20007;-72
2023/08/21 02:29:19;;;;;;;8.02;5.53;;;23.30;99.90;;;;;;6247507;22;20016;-72
2023/08/21 02:32:05;;;;;;;7.45;5.57;;;23.30;99.90;;;;;;6272782;22;20072;-70
2023/08/21 02:34:51;;;;;;;9.15;6.78;;;23.40;99.90;;;;;;6272029;22;20007;-70
2023/08/21 02:37:38;;;;;;;18.88;11.18;;;23.30;99.90;;;;;;6272271;22;20034;-70
2023/08/21 02:40:24;;;;;;;15.38;10.00;;;23.40;99.90;;;;;;6268584;22;20083;-70
2023/08/21 02:43:10;;;;;;;14.65;8.95;;;23.40;99.90;;;;;;6269550;22;20507;-70
2023/08/21 02:45:56;;;;;;;10.48;6.45;;;23.40;99.90;;;;;;6271408;22;20361;-70
2023/08/21 02:48:42;;;;;;;8.68;5.68;;;23.40;99.90;;;;;;6271283;22;20023;-69
2023/08/21 02:51:28;;;;;;;11.35;6.78;;;23.40;99.90;;;;;;6271708;22;20026;-70
2023/08/21 02:54:14;;;;;;;8.50;5.93;;;23.40;99.90;;;;;;6271490;22;20090;-70
2023/08/21 02:57:00;;;;;;;9.52;5.25;;;23.40;99.90;;;;;;6272542;22;20095;-70
2023/08/21 02:59:46;;;;;;;10.18;5.93;;;23.40;99.90;;;;;;6271726;22;20012;-69
2023/08/21 03:02:32;;;;;;;11.07;6.25;;;23.40;99.90;;;;;;6272830;22;20019;-70
2023/08/21 03:05:18;;;;;;;8.63;6.10;;;23.30;99.90;;;;;;6247870;22;20019;-71
2023/08/21 03:08:04;;;;;;;11.02;5.55;;;23.30;99.90;;;;;;6272060;22;20331;-71
2023/08/21 03:10:50;;;;;;;8.13;5.88;;;23.30;99.90;;;;;;6271826;22;20058;-71
2023/08/21 03:13:36;;;;;;;9.98;6.00;;;23.30;99.90;;;;;;6270642;22;20098;-71
2023/08/21 03:16:22;;;;;;;6.35;5.07;;;23.30;99.90;;;;;;6275073;22;20015;-70
2023/08/21 03:19:08;;;;;;;8.85;5.57;;;23.30;99.90;;;;;;6274671;22;20012;-70
2023/08/21 03:21:54;;;;;;;8.88;5.55;;;23.30;99.90;;;;;;6271990;22;20019;-70
2023/08/21 03:24:40;;;;;;;6.80;5.00;;;23.30;99.90;;;;;;6271147;22;20012;-70
2023/08/21 03:27:26;;;;;;;8.52;5.63;;;23.30;99.90;;;;;;6272055;22;20396;-70
2023/08/21 03:30:14;;;;;;;7.97;5.57;;;23.40;99.90;;;;;;6271569;22;20012;-70
2023/08/21 03:33:00;;;;;;;8.60;5.90;;;23.40;99.90;;;;;;6270257;22;20348;-70
2023/08/21 03:35:46;;;;;;;7.18;5.22;;;23.40;99.90;;;;;;6271386;22;20081;-71
2023/08/21 03:38:32;;;;;;;7.38;4.57;;;23.40;99.90;;;;;;6270991;22;20011;-71
2023/08/21 03:41:18;;;;;;;9.90;5.57;;;23.40;99.90;;;;;;6273841;22;20012;-71
2023/08/21 03:44:04;;;;;;;7.13;4.60;;;23.40;99.90;;;;;;6270680;22;20044;-71
2023/08/21 03:46:50;;;;;;;6.78;4.85;;;23.40;99.90;;;;;;6273190;22;20010;-75
2023/08/21 03:49:36;;;;;;;10.77;6.20;;;23.40;99.90;;;;;;6272099;22;20531;-75
2023/08/21 03:52:22;;;;;;;6.40;4.10;;;23.40;99.90;;;;;;6274192;22;20019;-75
2023/08/21 03:55:08;;;;;;;6.72;5.25;;;23.40;99.90;;;;;;6272690;22;20365;-74
2023/08/21 03:57:54;;;;;;;7.57;4.70;;;23.40;99.90;;;;;;6273783;22;20050;-73
2023/08/21 04:00:40;;;;;;;9.88;5.13;;;23.40;99.90;;;;;;6273119;22;20012;-72
2023/08/21 04:03:26;;;;;;;8.77;5.35;;;23.40;99.90;;;;;;6272950;22;20442;-72
2023/08/21 04:06:12;;;;;;;9.02;5.15;;;23.40;99.90;;;;;;6251330;22;20019;-78
2023/08/21 04:08:57;;;;;;;9.68;5.07;;;23.40;99.90;;;;;;6273853;22;20605;-78
2023/08/21 04:11:43;;;;;;;7.38;5.65;;;23.40;99.90;;;;;;6274434;22;20050;-69
2023/08/21 04:14:29;;;;;;;7.43;5.25;;;23.40;99.90;;;;;;6270133;22;20042;-69
2023/08/21 04:17:21;;;;;;;6.43;4.72;;;23.40;99.90;;;;;;6250488;22;20008;-70
2023/08/21 04:20:07;;;;;;;8.77;4.65;;;23.50;99.90;;;;;;6271124;22;20077;-70
2023/08/21 04:22:53;;;;;;;7.88;5.18;;;23.50;99.90;;;;;;6273364;22;20177;-70
2023/08/21 04:25:39;;;;;;;6.18;4.25;;;23.50;99.90;;;;;;6272487;22;20034;-69
2023/08/21 04:28:25;;;;;;;6.82;4.82;;;23.50;99.90;;;;;;6272851;22;20776;-70
2023/08/21 04:31:11;;;;;;;9.75;5.35;;;23.50;99.90;;;;;;6273702;22;20007;-69
2023/08/21 04:33:57;;;;;;;7.43;4.90;;;23.60;99.90;;;;;;6272908;22;20022;-70
2023/08/21 04:36:43;;;;;;;6.45;4.25;;;23.60;99.90;;;;;;6272835;22;20012;-70
2023/08/21 04:39:29;;;;;;;7.38;4.28;;;23.60;99.90;;;;;;6270968;22;20099;-70
2023/08/21 04:42:15;;;;;;;7.68;4.47;;;23.60;99.90;;;;;;6273077;22;20010;-69
2023/08/21 04:45:02;;;;;;;7.97;4.50;;;23.60;99.90;;;;;;6273051;22;20015;-69
2023/08/21 04:47:48;;;;;;;8.02;5.32;;;23.60;99.90;;;;;;6273468;22;20122;-71
2023/08/21 04:50:34;;;;;;;7.97;4.97;;;23.60;99.90;;;;;;6270211;22;20007;-68
2023/08/21 04:53:20;;;;;;;10.10;5.10;;;23.70;99.90;;;;;;6271988;22;20008;-69
2023/08/21 04:56:06;;;;;;;8.45;5.07;;;23.70;99.90;;;;;;6274026;22;20011;-69
2023/08/21 04:58:52;;;;;;;7.20;5.25;;;23.80;99.90;;;;;;6271844;22;20035;-69
2023/08/21 05:01:38;;;;;;;9.23;5.53;;;23.80;99.90;;;;;;6250308;22;20007;-69
2023/08/21 05:04:24;;;;;;;9.50;5.25;;;23.90;99.90;;;;;;6272502;22;20008;-69
2023/08/21 05:07:10;;;;;;;7.18;5.25;;;23.90;99.90;;;;;;6273047;22;20102;-69
2023/08/21 05:10:00;;;;;;;9.18;5.38;;;24.00;99.90;;;;;;6272376;22;20054;-69
2023/08/21 05:12:46;;;;;;;9.68;5.32;;;24.00;99.90;;;;;;6268535;22;20015;-69
2023/08/21 05:15:32;;;;;;;6.80;4.95;;;24.10;99.90;;;;;;6247303;22;20106;-69
2023/08/21 05:18:18;;;;;;;9.57;5.72;;;24.10;99.90;;;;;;6270836;22;20095;-69
2023/08/21 05:21:04;;;;;;;10.90;5.38;;;24.10;99.90;;;;;;6270979;22;20008;-69
2023/08/21 05:23:53;;;;;;;10.30;5.15;;;24.10;99.90;;;;;;6271213;22;20345;-69
2023/08/21 05:26:39;;;;;;;6.55;4.90;;;24.20;99.90;;;;;;6271479;22;20007;-70
2023/08/21 05:29:25;;;;;;;9.27;4.93;;;24.20;99.90;;;;;;6269322;22;20358;-69
2023/08/21 05:32:11;;;;;;;5.93;4.35;;;24.20;99.90;;;;;;6271550;22;20008;-70
2023/08/21 05:34:57;;;;;;;8.23;5.65;;;24.20;99.90;;;;;;6270401;22;20004;-69
2023/08/21 05:37:43;;;;;;;8.65;5.68;;;24.30;99.90;;;;;;6270277;22;20479;-69
2023/08/21 05:40:29;;;;;;;9.25;5.68;;;24.30;99.90;;;;;;6270356;22;20015;-69
2023/08/21 05:43:16;;;;;;;7.70;5.70;;;24.30;99.90;;;;;;6271506;22;20008;-70
2023/08/21 05:46:05;;;;;;;7.80;5.22;;;24.30;99.90;;;;;;6270156;22;20008;-70
2023/08/21 05:48:51;;;;;;;8.30;5.43;;;24.30;99.90;;;;;;6270913;22;20021;-69
2023/08/21 05:51:37;;;;;;;8.23;5.00;;;24.30;99.90;;;;;;6270704;22;20005;-70
2023/08/21 05:54:25;;;;;;;7.57;5.22;;;24.40;99.90;;;;;;6271622;22;20185;-70
2023/08/21 05:57:11;;;;;;;7.43;4.47;;;24.50;99.90;;;;;;6270680;22;20007;-70
2023/08/21 05:59:57;;;;;;;7.60;4.80;;;24.60;99.90;;;;;;6270647;22;20033;-70
2023/08/21 06:02:43;;;;;;;6.68;4.82;;;24.70;99.90;;;;;;6269432;22;20008;-70
2023/08/21 06:05:29;;;;;;;8.60;5.85;;;24.70;99.90;;;;;;6270609;22;20070;-70
2023/08/21 06:08:15;;;;;;;6.30;5.15;;;24.70;99.90;;;;;;6271004;22;20019;-70
2023/08/21 06:11:00;;;;;;;7.10;5.55;;;24.80;99.90;;;;;;6271286;22;20400;-69
2023/08/21 06:13:47;;;;;;;10.60;5.13;;;24.90;99.90;;;;;;6223581;22;1104116;-69
2023/08/21 06:16:33;;;;;;;8.95;5.63;;;24.90;99.90;;;;;;6272267;22;20018;-68
2023/08/21 06:19:19;;;;;;;8.48;5.25;;;24.90;99.90;;;;;;6271985;22;20115;-69
2023/08/21 06:22:05;;;;;;;6.20;4.93;;;25.00;99.90;;;;;;6273326;22;20505;-68
2023/08/21 06:24:51;;;;;;;10.23;5.47;;;25.00;99.90;;;;;;6271841;22;20424;-69
2023/08/21 06:27:37;;;;;;;8.20;4.78;;;25.10;99.90;;;;;;6269318;22;20024;-74
2023/08/21 06:30:23;;;;;;;9.13;5.38;;;25.10;99.90;;;;;;6265893;22;20357;-70
2023/08/21 06:33:09;;;;;;;7.13;5.20;;;25.20;99.90;;;;;;6271514;22;20457;-68
2023/08/21 06:35:55;;;;;;;8.95;4.88;;;25.20;99.80;;;;;;6271189;22;20007;-71
2023/08/21 06:38:41;;;;;;;7.85;5.43;;;25.20;99.90;;;;;;6271243;22;20015;-72
2023/08/21 06:41:27;;;;;;;7.95;5.00;;;25.30;99.80;;;;;;6271526;22;20018;-71
2023/08/21 06:44:14;;;;;;;6.82;4.65;;;25.30;99.60;;;;;;6278656;22;20010;-71
2023/08/21 06:47:00;;;;;;;6.82;4.72;;;25.30;99.30;;;;;;6274378;22;20308;-72
2023/08/21 06:49:46;;;;;;;8.52;4.47;;;25.50;99.30;;;;;;6270353;22;20015;-71
2023/08/21 06:52:32;;;;;;;8.30;4.82;;;25.50;99.20;;;;;;6270389;22;20018;-72
2023/08/21 06:55:17;;;;;;;5.47;4.35;;;25.60;99.10;;;;;;6270638;22;20062;-77
2023/08/21 06:58:03;;;;;;;7.10;5.03;;;25.60;98.90;;;;;;6270814;22;20049;-74
2023/08/21 07:00:49;;;;;;;8.80;4.97;;;25.60;98.70;;;;;;6272046;22;20014;-74
2023/08/21 07:03:35;;;;;;;7.68;5.18;;;25.60;98.70;;;;;;6271554;22;20041;-77
2023/08/21 07:06:21;;;;;;;6.55;4.63;;;25.80;98.70;;;;;;6268374;22;20047;-76
2023/08/21 07:09:07;;;;;;;7.07;4.82;;;25.80;98.50;;;;;;6270169;22;20077;-76
2023/08/21 07:11:53;;;;;;;9.77;5.60;;;25.80;98.30;;;;;;6271127;22;20022;-76
2023/08/21 07:14:39;;;;;;;7.65;4.63;;;25.80;98.10;;;;;;6269945;22;20091;-75
2023/08/21 07:17:24;;;;;;;6.80;4.53;;;25.90;98.10;;;;;;6270298;22;20381;-84
2023/08/21 07:20:11;;;;;;;7.45;5.00;;;25.80;98.00;;;;;;6268929;22;20043;-81
2023/08/21 07:22:57;;;;;;;6.72;4.80;;;25.80;97.90;;;;;;6268679;22;20012;-80
2023/08/21 07:25:44;;;;;;;7.07;4.75;;;25.90;97.90;;;;;;6270105;22;20019;-79
2023/08/21 07:28:30;;;;;;;7.35;4.88;;;25.90;97.90;;;;;;6269939;22;20640;-75
2023/08/21 07:31:15;;;;;;;6.72;4.10;;;26.00;97.70;;;;;;6269171;22;20448;-75
2023/08/21 07:34:01;;;;;;;8.05;4.65;;;26.00;97.70;;;;;;6270786;22;20008;-78
2023/08/21 07:36:47;;;;;;;8.48;4.28;;;26.00;97.50;;;;;;6271086;22;20008;-79
2023/08/21 07:39:33;;;;;;;6.07;3.70;;;26.00;97.20;;;;;;6269842;22;20342;-79
2023/08/21 07:42:19;;;;;;;6.32;4.03;;;26.00;96.90;;;;;;6270059;22;20501;-79
2023/08/21 07:45:06;;;;;;;5.28;3.28;;;26.00;96.90;;;;;;6268117;22;20073;-78
2023/08/21 07:47:52;;;;;;;5.90;3.72;;;26.00;96.70;;;;;;6269625;22;20349;-78
2023/08/21 07:50:37;;;;;;;6.80;4.03;;;26.00;96.60;;;;;;6271288;22;20003;-76
2023/08/21 07:53:25;;;;;;;5.35;3.67;;;26.00;96.20;;;;;;6269254;22;20100;-78
2023/08/21 07:56:11;;;;;;;6.47;3.50;;;26.00;96.10;;;;;;6269346;22;20456;-78
2023/08/21 07:58:57;;;;;;;6.55;3.42;;;26.10;96.00;;;;;;6268999;22;20392;-77
2023/08/21 08:01:43;;;;;;;7.10;3.00;;;26.10;95.50;;;;;;6270965;22;20012;-78
2023/08/21 08:04:29;;;;;;;5.32;2.95;;;26.10;95.10;;;;;;6270945;22;20011;-77
2023/08/21 08:07:15;;;;;;;4.97;2.83;;;26.10;94.90;;;;;;6271893;22;20092;-73
2023/08/21 08:10:01;;;;;;;4.72;3.03;;;26.20;94.70;;;;;;6268411;22;20011;-77
2023/08/21 08:12:46;;;;;;;5.18;2.88;;;26.30;94.10;;;;;;6271548;22;20066;-77
2023/08/21 08:15:34;;;;;;;7.32;2.55;;;26.30;93.80;;;;;;6271171;22;20086;-75
2023/08/21 08:18:20;;;;;;;5.50;2.70;;;26.40;93.60;;;;;;6269422;22;20031;-75
2023/08/21 08:21:06;;;;;;;3.83;2.20;;;26.40;93.60;;;;;;6271287;22;20012;-76
2023/08/21 08:23:52;;;;;;;4.20;2.30;;;26.40;93.50;;;;;;6271080;22;20011;-76
2023/08/21 08:26:38;;;;;;;5.28;2.45;;;26.50;93.20;;;;;;6270797;22;20011;-75
2023/08/21 08:29:24;;;;;;;3.90;2.35;;;26.60;93.30;;;;;;6250195;22;20391;-73
2023/08/21 08:32:10;;;;;;;4.80;2.28;;;26.70;93.40;;;;;;6273617;22;20015;-75
2023/08/21 08:34:56;;;;;;;4.15;2.35;;;26.80;92.20;;;;;;6272897;22;20004;-72
2023/08/21 08:37:42;;;;;;;5.45;2.38;;;26.80;92.40;;;;;;6273860;22;20011;-74
2023/08/21 08:40:28;;;;;;;6.25;2.72;;;26.70;91.50;;;;;;6270593;22;20011;-74
2023/08/21 08:43:14;;;;;;;5.07;2.60;;;26.70;91.20;;;;;;6271817;22;20007;-74
2023/08/21 08:46:02;;;;;;;6.97;2.15;;;26.70;91.20;;;;;;6273078;22;20008;-72
2023/08/21 08:48:48;;;;;;;5.68;2.25;;;26.60;90.80;;;;;;6272321;22;20055;-75
2023/08/21 08:51:35;;;;;;;4.40;2.80;;;26.50;90.90;;;;;;6271578;22;20011;-73
2023/08/21 08:54:25;;;;;;;4.72;1.95;;;26.50;90.60;;;;;;6272729;22;20091;-77
2023/08/21 08:57:11;;;;;;;2.47;1.77;;;26.50;90.70;;;;;;6272499;22;20015;-76
2023/08/21 08:59:57;;;;;;;3.13;2.17;;;26.50;90.70;;;;;;6272320;22;20043;-74
2023/08/21 09:02:42;;;;;;;3.30;1.85;;;26.50;90.10;;;;;;6272878;22;20091;-75
2023/08/21 09:05:29;;;;;;;3.47;1.80;;;26.50;89.40;;;;;;6272224;22;20022;-69
2023/08/21 09:08:15;;;;;;;4.88;1.73;;;26.50;88.20;;;;;;6272138;22;20027;-76
2023/08/21 09:11:03;;;;;;;2.38;1.63;;;26.60;86.20;;;;;;6273036;22;20011;-75
2023/08/21 09:13:53;;;;;;;2.55;1.38;;;26.60;86.80;;;;;;6272930;22;20445;-76
2023/08/21 09:17:01;;;;;;;4.03;1.63;;;26.70;85.10;;;;;;6272988;22;20010;-76
2023/08/21 09:19:47;;;;;;;4.22;1.20;;;26.80;83.50;;;;;;6270871;22;20072;-75
2023/08/21 09:22:32;;;;;;;4.63;1.48;;;26.80;80.00;;;;;;6272925;22;20422;-75
2023/08/21 09:25:19;;;;;;;4.40;1.27;;;27.00;81.50;;;;;;6271386;22;20022;-78
2023/08/21 09:28:06;;;;;;;2.33;1.20;;;27.10;79.10;;;;;;6272050;22;20026;-77
2023/08/21 09:30:54;;;;;;;2.38;0.90;;;27.20;77.20;;;;;;6273132;22;20004;-78
2023/08/21 09:33:40;;;;;;;2.70;1.08;;;27.30;77.40;;;;;;6270805;22;20019;-78
2023/08/21 09:36:27;;;;;;;1.48;1.10;;;27.40;77.20;;;;;;6250342;22;20011;-78
2023/08/21 09:39:17;;;;;;;1.85;1.20;;;27.50;77.70;;;;;;6270161;22;20065;-78
2023/08/21 09:42:07;;;;;;;5.30;1.50;;;27.60;77.70;;;;;;6246547;22;20349;-78
2023/08/21 09:44:53;;;;;;;4.70;1.45;;;27.60;77.70;;;;;;6271722;22;20008;-78
2023/08/21 09:47:40;;;;;;;2.35;1.60;;;27.60;77.00;;;;;;6273151;22;20023;-79
2023/08/21 09:50:28;;;;;;;4.40;1.33;;;27.70;75.80;;;;;;6270687;22;20169;-77
2023/08/21 09:53:14;;;;;;;2.78;1.40;;;27.70;75.80;;;;;;6272451;22;20046;-76
2023/08/21 09:56:03;;;;;;;2.17;1.13;;;27.80;76.10;;;;;;6272169;22;20047;-76
2023/08/21 09:58:50;;;;;;;2.58;0.98;;;27.80;75.10;;;;;;6272237;22;20039;-76
2023/08/21 10:01:38;;;;;;;2.85;1.25;;;28.00;75.50;;;;;;6271304;22;20010;-77
2023/08/21 10:04:27;;;;;;;1.80;1.20;;;28.10;74.90;;;;;;6269023;22;20016;-76
2023/08/21 10:07:13;;;;;;;2.65;0.90;;;28.20;73.20;;;;;;6270546;22;20392;-76
2023/08/21 10:10:00;;;;;;;3.67;1.10;;;28.20;73.40;;;;;;6248984;22;20012;-70
2023/08/21 10:12:46;;;;;;;1.95;1.20;;;28.20;73.50;;;;;;6273752;22;20015;-71
2023/08/21 10:15:33;;;;;;;3.08;1.50;;;28.20;73.60;;;;;;6275454;22;20012;-71
2023/08/21 10:18:31;;;;;;;1.88;1.10;;;28.20;74.00;;;;;;6268796;22;20007;-72
2023/08/21 10:21:19;;;;;;;2.58;1.30;;;28.30;73.90;;;;;;6271582;22;20349;-71
2023/08/21 10:24:05;;;;;;;1.98;1.30;;;28.40;74.30;;;;;;6271094;22;20061;-71
2023/08/21 10:26:51;;;;;;;2.42;1.25;;;28.40;73.60;;;;;;6271838;22;20034;-72
2023/08/21 10:29:38;;;;;;;1.08;0.95;;;28.40;73.20;;;;;;6267945;22;20011;-73
2023/08/21 10:32:24;;;;;;;2.25;1.15;;;28.40;74.00;;;;;;6271582;22;20046;-72
2023/08/21 10:35:24;;;;;;;4.57;1.60;;;28.40;74.20;;;;;;6270253;22;20008;-73
2023/08/21 10:38:10;;;;;;;6.40;1.73;;;28.50;74.30;;;;;;6270249;22;20014;-72
2023/08/21 10:41:10;;;;;;;4.38;1.40;;;28.70;73.80;;;;;;6271005;22;20015;-72
2023/08/21 10:43:56;;;;;;;4.00;1.50;;;28.80;73.90;;;;;;6270300;22;20038;-72
2023/08/21 10:46:52;;;;;;;1.48;1.15;;;28.90;72.70;;;;;;6269915;22;20390;-72
2023/08/21 10:49:38;;;;;;;2.80;1.50;;;29.10;73.60;;;;;;6246071;22;20019;-72
2023/08/21 10:52:25;;;;;;;3.03;1.67;;;29.20;72.70;;;;;;6269675;22;20012;-73
2023/08/21 10:55:13;;;;;;;2.42;1.17;;;29.20;71.30;;;;;;6246566;22;20015;-73
2023/08/21 10:57:58;;;;;;;4.50;1.42;;;29.20;71.70;;;;;;6271487;22;20015;-72
2023/08/21 11:00:44;;;;;;;4.35;1.40;;;29.10;70.60;;;;;;6271379;22;20015;-73
2023/08/21 11:03:30;;;;;;;1.92;1.02;;;29.10;71.10;;;;;;6270005;22;20023;-74
2023/08/21 11:06:19;;;;;;;1.33;1.17;;;29.10;70.10;;;;;;6248384;22;20007;-73
2023/08/21 11:09:05;;;;;;;3.92;1.05;;;29.10;70.00;;;;;;6269903;22;20019;-71
2023/08/21 11:11:51;;;;;;;2.80;1.40;;;29.10;69.60;;;;;;6250418;22;20086;-73
2023/08/21 11:14:38;;;;;;;2.40;1.20;;;29.20;70.40;;;;;;6269998;22;20065;-72
2023/08/21 11:17:24;;;;;;;2.65;1.15;;;29.30;69.40;;;;;;6271585;22;20091;-72
2023/08/21 11:20:10;;;;;;;6.45;1.60;;;29.30;69.20;;;;;;6270201;22;20076;-72
2023/08/21 11:23:02;;;;;;;3.80;1.63;;;29.30;69.50;;;;;;6270871;22;20011;-73
2023/08/21 11:25:48;;;;;;;6.22;1.65;;;29.30;69.70;;;;;;6270011;22;20050;-72
2023/08/21 11:28:35;;;;;;;3.63;1.67;;;29.20;70.20;;;;;;6270015;22;20019;-73
2023/08/21 11:31:21;;;;;;;3.55;1.30;;;29.20;69.90;;;;;;6267036;22;20019;-71
2023/08/21 11:34:07;;;;;;;3.95;1.20;;;29.20;70.70;;;;;;6270166;22;20422;-77
2023/08/21 11:36:53;;;;;;;2.00;1.38;;;29.20;70.00;;;;;;6271454;22;20322;-69
2023/08/21 11:39:58;;;;;;;2.20;1.27;;;29.00;69.30;;;;;;6269643;22;20069;-72
2023/08/21 11:42:44;;;;;;;2.53;1.20;;;29.00;69.60;;;;;;6271169;22;20015;-71
2023/08/21 11:45:30;;;;;;;3.20;1.30;;;29.00;70.60;;;;;;6270570;22;20042;-70
2023/08/21 11:48:20;;;;;;;6.18;1.52;;;29.20;70.10;;;;;;6271710;22;20027;-69
2023/08/21 11:51:09;;;;;;;2.08;1.20;;;29.20;69.80;;;;;;6270379;22;20008;-76
2023/08/21 11:53:54;;;;;;;3.35;1.33;;;29.30;68.50;;;;;;6270904;22;20042;-72
2023/08/21 11:56:43;;;;;;;2.17;1.20;;;29.30;68.00;;;;;;6271184;22;20014;-72
2023/08/21 11:59:30;;;;;;;3.53;1.30;;;29.40;67.70;;;;;;6271210;22;20149;-72
2023/08/21 12:02:26;;;;;;;3.05;1.10;;;29.40;67.00;;;;;;6268217;22;20019;-72
2023/08/21 12:05:14;;;;;;;2.75;1.13;;;29.40;67.10;;;;;;6274220;22;20445;-73
2023/08/21 12:08:00;;;;;;;4.43;1.48;;;29.40;65.50;;;;;;6270502;22;20015;-73
2023/08/21 12:10:52;;;;;;;2.22;1.40;;;29.30;65.40;;;;;;6273561;22;20481;-73
2023/08/21 12:13:38;;;;;;;2.63;1.38;;;29.30;65.00;;;;;;6269231;22;20353;-70
2023/08/21 12:16:24;;;;;;;2.65;1.40;;;29.30;65.40;;;;;;6273514;22;20007;-70
2023/08/21 12:19:11;;;;;;;1.52;1.02;;;29.30;66.30;;;;;;6272483;22;20019;-73
2023/08/21 12:21:58;;;;;;;2.00;1.15;;;29.20;65.40;;;;;;6274203;22;20011;-72
2023/08/21 12:24:44;;;;;;;3.05;1.65;;;29.20;66.20;;;;;;6272875;22;20016;-70
2023/08/21 12:27:31;;;;;;;4.28;1.60;;;29.30;66.50;;;;;;6270709;22;20008;-70
2023/08/21 12:30:16;;;;;;;6.55;1.83;;;29.30;66.50;;;;;;6273410;22;20453;-73
2023/08/21 12:33:03;;;;;;;4.05;1.85;;;29.20;65.90;;;;;;6273967;22;20441;-72
2023/08/21 12:35:49;;;;;;;10.43;3.13;;;29.10;66.50;;;;;;6274002;22;20008;-73
2023/08/21 12:38:35;;;;;;;8.52;2.95;;;29.10;66.80;;;;;;6273439;22;20310;-75
2023/08/21 12:41:21;;;;;;;6.22;1.95;;;29.10;67.40;;;;;;6273289;22;20011;-73
2023/08/21 12:44:08;;;;;;;4.75;1.60;;;29.10;68.10;;;;;;6273255;22;20060;-72
2023/08/21 12:46:54;;;;;;;6.45;2.53;;;29.10;68.00;;;;;;6272533;22;20018;-72
2023/08/21 12:49:40;;;;;;;5.93;1.92;;;29.10;68.20;;;;;;6272553;22;20105;-72
2023/08/21 12:52:26;;;;;;;1.52;1.17;;;29.10;67.60;;;;;;6270996;22;20568;-72
2023/08/21 12:55:13;;;;;;;2.95;1.35;;;29.00;67.50;;;;;;6272058;22;20016;-72
2023/08/21 12:57:59;;;;;;;2.42;1.50;;;29.00;67.70;;;;;;6273188;22;20008;-72
2023/08/21 13:00:45;;;;;;;2.35;1.30;;;29.00;67.90;;;;;;6274047;22;20014;-72
2023/08/21 13:03:32;;;;;;;2.42;1.17;;;29.10;67.20;;;;;;6272336;22;20014;-72
2023/08/21 13:06:18;;;;;;;2.75;1.30;;;29.10;66.30;;;;;;6249123;22;20003;-73
2023/08/21 13:09:05;;;;;;;3.00;1.08;;;29.20;65.60;;;;;;6272820;22;20024;-72
2023/08/21 13:11:52;;;;;;;3.28;1.02;;;29.30;64.80;;;;;;6268936;22;20426;-72
2023/08/21 13:14:37;;;;;;;2.17;0.80;;;29.30;64.20;;;;;;6271951;22;20353;-72
2023/08/21 13:17:23;;;;;;;2.13;0.82;;;29.30;63.60;;;;;;6272572;22;20022;-72
2023/08/21 13:20:13;;;;;;;3.58;1.10;;;29.40;62.20;;;;;;6273001;22;20019;-72
2023/08/21 13:22:58;;;;;;;3.03;0.93;;;29.40;62.40;;;;;;6268791;22;20085;-72
2023/08/21 13:25:44;;;;;;;3.38;1.30;;;29.40;61.00;;;;;;6272674;22;20027;-72
2023/08/21 13:28:33;;;;;;;2.00;1.08;;;29.40;61.00;;;;;;6272770;22;20024;-73
2023/08/21 13:31:19;;;;;;;2.67;1.00;;;29.50;60.80;;;;;;6270528;22;20429;-72
2023/08/21 13:34:05;;;;;;;1.83;0.98;;;29.40;60.00;;;;;;6270470;22;20007;-73
2023/08/21 13:36:52;;;;;;;1.85;1.10;;;29.30;60.20;;;;;;6269691;22;20039;-74
2023/08/21 13:39:38;;;;;;;1.88;1.02;;;29.20;60.50;;;;;;6273902;22;20201;-73
2023/08/21 13:42:24;;;;;;;3.10;1.02;;;29.30;61.00;;;;;;6278020;22;20010;-73
2023/08/21 13:45:12;;;;;;;1.83;1.05;;;29.30;61.40;;;;;;6275074;22;20022;-76
2023/08/21 13:47:58;;;;;;;3.05;0.82;;;29.40;61.50;;;;;;6272931;22;20016;-74
2023/08/21 13:50:44;;;;;;;5.47;1.23;;;29.40;61.30;;;;;;6273499;22;20345;-74
2023/08/21 13:53:30;;;;;;;3.20;1.40;;;29.40;62.00;;;;;;6272409;22;20019;-75
2023/08/21 13:56:15;;;;;;;2.67;1.13;;;29.50;62.60;;;;;;6272750;22;20004;-73
2023/08/21 13:59:02;;;;;;;2.53;1.20;;;29.50;62.20;;;;;;6272226;22;20007;-74
2023/08/21 14:01:48;;;;;;;2.40;1.02;;;29.50;62.50;;;;;;6271320;22;20384;-75
2023/08/21 14:04:34;;;;;;;2.85;1.08;;;29.40;61.70;;;;;;6269924;22;20023;-72
2023/08/21 14:07:19;;;;;;;2.50;1.20;;;29.50;61.90;;;;;;6247719;22;20441;-74
2023/08/21 14:10:06;;;;;;;2.20;0.95;;;29.60;61.40;;;;;;6271440;22;20008;-74
2023/08/21 14:12:52;;;;;;;1.23;0.70;;;29.70;61.10;;;;;;6269973;22;20026;-70
2023/08/21 14:15:38;;;;;;;3.15;1.08;;;29.80;61.00;;;;;;6269943;22;20011;-74
2023/08/21 14:18:24;;;;;;;3.88;1.30;;;29.70;60.70;;;;;;6269300;22;20428;-73
2023/08/21 14:21:10;;;;;;;1.00;0.90;;;29.70;60.60;;;;;;6269169;22;20019;-72
2023/08/21 14:23:56;;;;;;;4.70;1.23;;;29.80;61.20;;;;;;6271250;22;20016;-74
2023/08/21 14:26:42;;;;;;;0.80;0.80;;;29.80;61.90;;;;;;6273002;22;20014;-73